createdAt,value
2019-01-30T00:00:38.925Z,70.80
2019-01-30T00:03:10.425Z,69.60
2019-01-30T00:05:42.024Z,75.20
2019-01-30T00:08:13.489Z,72.20
2019-01-30T00:10:45.064Z,70.40
2019-01-30T00:13:16.522Z,78.80
2019-01-30T00:15:56.129Z,76.40
2019-01-30T00:18:20.791Z,70.00
2019-01-30T00:20:52.099Z,73.80
2019-01-30T00:23:23.538Z,75.80
2019-01-30T00:25:54.879Z,69.20
2019-01-30T00:28:26.310Z,75.80
2019-01-30T00:30:58.081Z,78.80
2019-01-30T00:33:29.623Z,77.40
2019-01-30T00:36:01.472Z,79.60
2019-01-30T00:38:32.814Z,72.60
2019-01-30T00:41:04.364Z,83.40
2019-01-30T00:43:35.764Z,81.00
2019-01-30T00:46:07.039Z,85.00
2019-01-30T00:48:38.463Z,84.00
2019-01-30T00:51:11.117Z,88.00
2019-01-30T00:53:42.816Z,86.50
2019-01-30T00:56:14.374Z,78.50
2019-01-30T00:58:45.560Z,86.25
2019-01-30T01:01:17.376Z,87.75
2019-01-30T01:03:48.677Z,90.50
2019-01-30T01:06:20.307Z,92.75
2019-01-30T01:08:51.843Z,88.50
2019-01-30T01:11:23.603Z,91.50
2019-01-30T01:13:54.970Z,89.00
2019-01-30T01:16:26.384Z,91.50
2019-01-30T01:18:57.565Z,102.00
2019-01-30T01:21:29.275Z,83.00
2019-01-30T01:24:00.627Z,91.75
2019-01-30T01:26:32.117Z,97.50
2019-01-30T01:29:03.913Z,90.75
2019-01-30T01:31:35.358Z,90.00
2019-01-30T01:34:07.077Z,83.50
2019-01-30T01:36:38.435Z,75.50
2019-01-30T01:39:11.184Z,94.00
2019-01-30T01:41:43.693Z,90.75
2019-01-30T01:44:15.521Z,84.75
2019-01-30T01:46:48.854Z,91.50
2019-01-30T01:49:20.759Z,100.00
2019-01-30T01:51:52.317Z,99.00
2019-01-30T01:54:23.838Z,98.25
2019-01-30T01:56:55.204Z,105.75
2019-01-30T01:59:26.610Z,108.50
2019-01-30T02:01:57.863Z,106.50
2019-01-30T02:04:29.381Z,101.25
2019-01-30T02:07:00.549Z,114.00
2019-01-30T02:09:32.750Z,101.75
2019-01-30T02:12:04.319Z,103.00
2019-01-30T02:14:36.062Z,114.75
2019-01-30T02:17:07.546Z,101.50
2019-01-30T02:19:39.343Z,113.00
2019-01-30T02:22:10.896Z,117.25
2019-01-30T02:24:42.428Z,125.75
2019-01-30T02:27:14.067Z,120.25
2019-01-30T02:29:45.973Z,131.50
2019-01-30T02:32:17.676Z,130.75
2019-01-30T02:34:49.539Z,141.50
2019-01-30T02:37:21.094Z,146.00
2019-01-30T02:39:52.971Z,163.50
2019-01-30T02:42:24.790Z,175.25
2019-01-30T02:44:56.250Z,179.25
2019-01-30T02:47:27.621Z,191.50
2019-01-30T02:49:59.149Z,200.00
2019-01-30T02:52:30.497Z,200.00
2019-01-30T02:55:02.166Z,196.50
2019-01-30T02:57:33.657Z,195.75
2019-01-30T03:00:06.577Z,194.25
2019-01-30T03:02:38.411Z,187.50
2019-01-30T03:05:11.729Z,195.00
2019-01-30T03:07:43.321Z,179.50
2019-01-30T03:10:17.558Z,165.25
2019-01-30T03:12:49.051Z,155.25
2019-01-30T03:15:20.770Z,147.50
2019-01-30T03:17:52.640Z,153.00
2019-01-30T03:20:25.690Z,147.25
2019-01-30T03:22:57.161Z,150.50
2019-01-30T03:25:29.864Z,147.75
2019-01-30T03:28:01.517Z,143.75
2019-01-30T03:30:33.761Z,142.00
2019-01-30T03:33:05.231Z,134.25
2019-01-30T03:35:36.777Z,146.50
2019-01-30T03:38:08.534Z,150.50
2019-01-30T03:40:40.874Z,145.25
2019-01-30T03:43:12.179Z,148.50
2019-01-30T03:45:44.209Z,159.50
2019-01-30T03:48:15.649Z,151.25
2019-01-30T03:50:47.391Z,144.75
2019-01-30T03:53:18.876Z,145.00
2019-01-30T03:55:50.213Z,158.00
2019-01-30T03:58:22.779Z,165.50
2019-01-30T04:00:54.333Z,173.00
2019-01-30T04:03:26.064Z,188.50
2019-01-30T04:05:57.887Z,181.50
2019-01-30T04:08:29.274Z,163.25
2019-01-30T04:11:01.004Z,177.00
2019-01-30T04:13:32.378Z,168.75
2019-01-30T04:16:04.003Z,177.75
2019-01-30T04:18:36.507Z,162.00
2019-01-30T04:21:08.269Z,153.25
2019-01-30T04:23:43.253Z,145.50
2019-01-30T04:26:14.778Z,156.50
2019-01-30T04:28:46.316Z,131.00
2019-01-30T04:31:17.662Z,145.00
2019-01-30T04:33:49.189Z,140.50
2019-01-30T04:36:20.715Z,136.50
2019-01-30T04:38:51.853Z,122.75
2019-01-30T04:41:23.255Z,96.25
2019-01-30T04:43:54.553Z,118.25
2019-01-30T04:46:25.786Z,115.25
2019-01-30T04:48:57.453Z,107.00
2019-01-30T04:51:28.851Z,92.25
2019-01-30T04:54:00.600Z,99.50
2019-01-30T04:56:31.963Z,95.00
2019-01-30T04:59:03.722Z,89.40
2019-01-30T05:01:35.528Z,91.80
2019-01-30T05:04:06.947Z,98.20
2019-01-30T05:06:38.335Z,85.80
2019-01-30T05:09:11.037Z,86.00
2019-01-30T05:11:42.447Z,84.40
2019-01-30T05:14:14.090Z,85.00
2019-01-30T05:16:45.444Z,80.40
2019-01-30T05:19:17.485Z,87.80
2019-01-30T05:21:48.926Z,79.80
2019-01-30T05:24:20.686Z,73.40
2019-01-30T05:26:52.170Z,77.20
2019-01-30T05:29:23.524Z,79.00
2019-01-30T05:32:01.367Z,72.00
2019-01-30T05:34:28.022Z,74.00
2019-01-30T05:36:59.220Z,68.80
2019-01-30T05:39:30.793Z,77.60
2019-01-30T05:42:02.096Z,65.20
2019-01-30T05:44:33.785Z,73.80
2019-01-30T05:47:05.117Z,74.40
2019-01-30T05:49:36.640Z,70.00
2019-01-30T05:52:08.244Z,68.00
2019-01-30T05:54:40.071Z,65.20
2019-01-30T05:57:11.668Z,54.80
2019-01-30T05:59:43.831Z,57.40
2019-01-30T06:02:15.893Z,49.80
2019-01-30T06:04:47.477Z,53.00
2019-01-30T06:07:18.693Z,59.40
2019-01-30T06:09:50.252Z,56.20
2019-01-30T06:12:21.955Z,60.20
2019-01-30T06:14:53.399Z,57.60
2019-01-30T06:17:24.724Z,54.60
2019-01-30T06:19:55.966Z,51.40
2019-01-30T06:22:27.555Z,52.80
2019-01-30T06:24:59.107Z,55.80
2019-01-30T06:27:30.923Z,55.80
2019-01-30T06:30:02.389Z,61.20
2019-01-30T06:32:33.857Z,54.00
2019-01-30T06:35:05.279Z,56.60
2019-01-30T06:37:36.908Z,53.00
2019-01-30T06:40:11.263Z,48.00
2019-01-30T06:42:43.109Z,54.20
2019-01-30T06:45:14.909Z,50.80
2019-01-30T06:47:46.210Z,53.00
2019-01-30T06:50:17.619Z,48.00
2019-01-30T06:52:48.834Z,48.20
2019-01-30T06:55:20.348Z,48.40
2019-01-30T06:57:52.114Z,48.20
2019-01-30T07:00:27.388Z,45.20
2019-01-30T07:02:59.594Z,47.80
2019-01-30T07:05:30.862Z,45.80
2019-01-30T07:08:02.442Z,47.40
2019-01-30T07:10:34.325Z,46.20
2019-01-30T07:13:05.959Z,47.80
2019-01-30T07:15:37.370Z,47.40
2019-01-30T07:18:10.134Z,48.00
2019-01-30T07:20:41.789Z,45.40
2019-01-30T07:23:12.978Z,45.60
2019-01-30T07:25:44.517Z,43.20
2019-01-30T07:28:15.697Z,45.00
2019-01-30T07:30:47.379Z,45.20
2019-01-30T07:33:18.780Z,45.00
2019-01-30T07:35:50.381Z,45.80
2019-01-30T07:38:21.847Z,47.20
2019-01-30T07:40:53.324Z,43.80
2019-01-30T07:43:25.042Z,47.00
2019-01-30T07:45:56.911Z,47.20
2019-01-30T07:48:29.010Z,47.00
2019-01-30T07:51:00.782Z,51.20
2019-01-30T07:53:32.294Z,46.20
2019-01-30T07:56:03.831Z,46.40
2019-01-30T07:58:35.416Z,46.80
2019-01-30T08:01:06.792Z,48.40
2019-01-30T08:03:39.061Z,52.80
2019-01-30T08:06:10.417Z,44.00
2019-01-30T08:08:41.981Z,46.00
2019-01-30T08:11:13.356Z,39.80
2019-01-30T08:13:45.074Z,42.80
2019-01-30T08:16:16.463Z,42.00
2019-01-30T08:18:47.857Z,46.80
2019-01-30T08:21:19.514Z,45.40
2019-01-30T08:23:53.375Z,43.60
2019-01-30T08:26:25.695Z,45.40
2019-01-30T08:28:57.819Z,43.40
2019-01-30T08:31:29.150Z,40.20
2019-01-30T08:34:00.896Z,42.80
2019-01-30T08:36:32.702Z,44.60
2019-01-30T08:39:06.340Z,46.80
2019-01-30T08:41:38.424Z,43.60
2019-01-30T08:44:09.900Z,46.00
2019-01-30T08:46:41.373Z,47.00
2019-01-30T08:49:13.038Z,47.00
2019-01-30T08:51:44.543Z,45.60
2019-01-30T08:54:16.072Z,44.80
2019-01-30T08:56:53.125Z,45.00
2019-01-30T08:59:22.048Z,46.60
2019-01-30T09:01:53.715Z,46.60
2019-01-30T09:04:25.115Z,46.00
2019-01-30T09:06:56.558Z,47.80
2019-01-30T09:09:27.986Z,46.00
2019-01-30T09:11:59.819Z,45.60
2019-01-30T09:14:31.298Z,46.20
2019-01-30T09:17:06.552Z,46.20
2019-01-30T09:19:36.033Z,48.20
2019-01-30T09:22:08.271Z,48.20
2019-01-30T09:24:39.584Z,46.20
2019-01-30T09:27:10.872Z,46.20
2019-01-30T09:29:42.712Z,45.20
2019-01-30T09:32:14.431Z,45.20
2019-01-30T09:34:45.635Z,43.60
2019-01-30T09:37:17.064Z,43.80
2019-01-30T09:39:48.728Z,42.00
2019-01-30T09:42:20.445Z,40.20
2019-01-30T09:44:52.013Z,42.20
2019-01-30T09:47:23.263Z,44.60
2019-01-30T09:49:54.936Z,43.40
2019-01-30T09:52:27.583Z,43.80
2019-01-30T09:54:59.031Z,39.80
2019-01-30T09:57:30.773Z,41.60
2019-01-30T10:00:02.401Z,38.60
2019-01-30T10:02:34.144Z,41.00
2019-01-30T10:05:07.222Z,38.40
2019-01-30T10:07:38.838Z,41.20
2019-01-30T10:10:13.843Z,40.60
2019-01-30T10:12:45.361Z,45.20
2019-01-30T10:15:18.831Z,41.80
2019-01-30T10:17:50.292Z,34.20
2019-01-30T10:20:24.092Z,38.00
2019-01-30T10:22:56.022Z,37.00
2019-01-30T10:25:27.818Z,39.00
2019-01-30T10:27:59.141Z,38.40
2019-01-30T10:30:33.233Z,36.00
2019-01-30T10:33:05.157Z,38.20
2019-01-30T10:35:37.220Z,38.20
2019-01-30T10:38:08.592Z,39.60
2019-01-30T10:40:40.199Z,40.40
2019-01-30T10:43:11.967Z,38.40
2019-01-30T10:45:43.473Z,38.60
2019-01-30T10:48:14.807Z,39.80
2019-01-30T10:50:46.286Z,37.80
2019-01-30T10:53:17.768Z,41.80
2019-01-30T10:55:49.322Z,37.60
2019-01-30T10:58:20.981Z,48.00
2019-01-30T11:00:53.484Z,52.60
2019-01-30T11:03:25.567Z,45.20
2019-01-30T11:05:57.466Z,44.60
2019-01-30T11:08:29.109Z,50.00
2019-01-30T11:11:07.594Z,47.20
2019-01-30T11:13:33.907Z,42.20
2019-01-30T11:16:05.498Z,44.00
2019-01-30T11:18:36.964Z,45.20
2019-01-30T11:21:08.296Z,42.20
2019-01-30T11:23:40.352Z,41.20
2019-01-30T11:26:11.987Z,41.20
2019-01-30T11:28:43.278Z,38.20
2019-01-30T11:31:14.818Z,39.40
2019-01-30T11:33:46.347Z,33.00
2019-01-30T11:36:18.491Z,41.20
2019-01-30T11:38:51.396Z,41.20
2019-01-30T11:41:22.953Z,39.60
2019-01-30T11:43:54.423Z,37.40
2019-01-30T11:46:26.098Z,38.60
2019-01-30T11:48:57.760Z,42.00
2019-01-30T11:51:29.421Z,40.60
2019-01-30T11:54:01.306Z,39.00
2019-01-30T11:56:32.782Z,41.40
2019-01-30T11:59:04.601Z,42.00
2019-01-30T12:01:36.237Z,41.00
2019-01-30T12:04:17.482Z,43.00
2019-01-30T12:06:41.662Z,43.60
2019-01-30T12:09:13.595Z,41.60
2019-01-30T12:11:45.331Z,43.20
2019-01-30T12:14:16.848Z,40.20
2019-01-30T12:16:48.612Z,42.00
2019-01-30T12:19:20.331Z,43.00
2019-01-30T12:21:51.872Z,43.80
2019-01-30T12:24:23.168Z,54.40
2019-01-30T12:26:54.521Z,85.40
2019-01-30T12:29:25.966Z,89.00
2019-01-30T12:31:57.434Z,109.00
2019-01-30T12:34:28.799Z,113.75
2019-01-30T12:36:59.987Z,98.40
2019-01-30T12:39:31.390Z,100.20
2019-01-30T12:42:02.648Z,105.00
2019-01-30T12:44:33.935Z,113.25
2019-01-30T12:47:06.265Z,110.50
2019-01-30T12:49:38.541Z,115.00
2019-01-30T12:52:09.978Z,100.40
2019-01-30T12:54:41.282Z,90.60
2019-01-30T12:57:12.724Z,89.80
2019-01-30T12:59:44.093Z,86.00
2019-01-30T13:02:15.370Z,84.80
2019-01-30T13:04:46.703Z,87.40
2019-01-30T13:07:18.110Z,86.20
2019-01-30T13:09:49.359Z,89.00
2019-01-30T13:12:20.847Z,90.80
2019-01-30T13:14:52.396Z,109.00
2019-01-30T13:17:24.219Z,122.25
2019-01-30T13:19:55.730Z,131.25
2019-01-30T13:22:27.011Z,123.00
2019-01-30T13:24:58.226Z,109.00
2019-01-30T13:27:29.353Z,110.25
2019-01-30T13:30:00.848Z,111.25
2019-01-30T13:32:32.509Z,101.00
2019-01-30T13:35:03.821Z,102.00
2019-01-30T13:37:35.059Z,102.75
2019-01-30T13:40:08.230Z,101.40
2019-01-30T13:42:39.825Z,93.80
2019-01-30T13:45:12.195Z,101.40
2019-01-30T13:47:43.888Z,100.80
2019-01-30T13:50:18.774Z,97.40
2019-01-30T13:52:50.011Z,101.80
2019-01-30T13:55:21.758Z,101.80
2019-01-30T13:57:53.446Z,106.00
2019-01-30T14:00:27.538Z,109.50
2019-01-30T14:02:59.091Z,122.25
2019-01-30T14:05:30.976Z,115.25
2019-01-30T14:08:02.424Z,111.50
2019-01-30T14:10:34.201Z,127.50
2019-01-30T14:13:05.897Z,121.00
2019-01-30T14:15:37.362Z,116.00
2019-01-30T14:18:09.387Z,117.00
2019-01-30T14:20:40.833Z,123.25
2019-01-30T14:23:12.752Z,120.00
2019-01-30T14:25:44.075Z,119.50
2019-01-30T14:28:15.836Z,114.25
2019-01-30T14:30:47.380Z,125.25
2019-01-30T14:33:18.973Z,127.50
2019-01-30T14:35:50.314Z,122.00
2019-01-30T14:38:22.273Z,132.25
2019-01-30T14:40:53.629Z,127.75
2019-01-30T14:43:25.087Z,120.00
2019-01-30T14:45:57.009Z,117.75
2019-01-30T14:48:28.437Z,113.00
2019-01-30T14:50:59.893Z,114.00
2019-01-30T14:53:31.188Z,112.75
2019-01-30T14:56:02.807Z,122.00
2019-01-30T14:58:34.048Z,124.25
2019-01-30T15:01:05.748Z,121.25
2019-01-30T15:03:37.051Z,121.25
2019-01-30T15:06:08.570Z,124.25
2019-01-30T15:08:40.290Z,123.00
2019-01-30T15:11:12.075Z,125.75
2019-01-30T15:13:43.761Z,144.50
2019-01-30T15:16:15.098Z,145.50
2019-01-30T15:18:46.501Z,134.00
2019-01-30T15:21:17.686Z,128.50
2019-01-30T15:23:49.299Z,158.25
2019-01-30T15:26:21.092Z,157.25
2019-01-30T15:28:52.629Z,137.50
2019-01-30T15:31:24.052Z,151.25
2019-01-30T15:33:55.561Z,138.50
2019-01-30T15:36:26.879Z,211.25
2019-01-30T15:38:58.790Z,203.20
2019-01-30T15:41:30.303Z,203.75
2019-01-30T15:44:02.126Z,171.50
2019-01-30T15:46:33.713Z,172.75
2019-01-30T15:49:06.382Z,174.75
2019-01-30T15:51:39.482Z,191.25
2019-01-30T15:54:11.023Z,173.00
2019-01-30T15:56:42.978Z,159.50
2019-01-30T15:59:14.812Z,170.00
2019-01-30T16:01:47.250Z,181.75
2019-01-30T16:04:20.991Z,176.00
2019-01-30T16:06:52.649Z,170.00
2019-01-30T16:09:24.141Z,173.25
2019-01-30T16:11:55.808Z,170.00
2019-01-30T16:14:27.645Z,178.00
2019-01-30T16:16:59.172Z,174.25
2019-01-30T16:19:30.747Z,171.75
2019-01-30T16:22:02.178Z,167.75
2019-01-30T16:24:34.826Z,176.00
2019-01-30T16:27:06.545Z,170.75
2019-01-30T16:29:38.030Z,168.25
2019-01-30T16:32:09.523Z,165.50
2019-01-30T16:34:41.463Z,171.00
2019-01-30T16:37:13.098Z,183.00
2019-01-30T16:39:44.881Z,164.75
2019-01-30T16:42:16.654Z,170.50
2019-01-30T16:44:47.978Z,159.50
2019-01-30T16:47:19.322Z,166.25
2019-01-30T16:49:50.652Z,165.00
2019-01-30T16:52:21.779Z,169.50
2019-01-30T16:54:53.125Z,157.00
2019-01-30T16:57:24.783Z,154.25
2019-01-30T16:59:56.547Z,171.50
2019-01-30T17:02:28.075Z,168.50
2019-01-30T17:04:59.387Z,160.50
2019-01-30T17:07:31.218Z,167.25
2019-01-30T17:10:02.615Z,158.00
2019-01-30T17:12:35.424Z,151.75
2019-01-30T17:15:08.709Z,153.50
2019-01-30T17:17:40.690Z,143.50
2019-01-30T17:20:16.215Z,137.50
2019-01-30T17:22:47.860Z,132.25
2019-01-30T17:25:19.451Z,136.50
2019-01-30T17:27:51.298Z,122.50
2019-01-30T17:30:31.914Z,118.50
2019-01-30T17:33:03.529Z,120.75
2019-01-30T17:35:35.193Z,112.25
2019-01-30T17:38:06.848Z,113.25
2019-01-30T17:40:39.144Z,107.50
2019-01-30T17:43:10.666Z,107.25
2019-01-30T17:45:42.600Z,111.25
2019-01-30T17:48:14.879Z,109.00
2019-01-30T17:50:46.575Z,96.25
2019-01-30T17:53:18.212Z,112.00
2019-01-30T17:55:49.703Z,111.00
2019-01-30T17:58:21.323Z,108.00
2019-01-30T18:01:05.014Z,106.25
2019-01-30T18:03:36.943Z,111.00
2019-01-30T18:06:08.592Z,102.75
2019-01-30T18:08:40.353Z,105.75
2019-01-30T18:11:11.888Z,115.50
2019-01-30T18:13:45.204Z,111.25
2019-01-30T18:16:16.791Z,119.75
2019-01-30T18:18:48.504Z,113.50
2019-01-30T18:21:19.970Z,111.75
2019-01-30T18:23:51.574Z,111.75
2019-01-30T18:26:23.226Z,118.25
2019-01-30T18:28:55.231Z,120.50
2019-01-30T18:31:27.100Z,110.75
2019-01-30T18:33:58.771Z,107.00
2019-01-30T18:36:40.382Z,107.25
2019-01-30T18:39:04.178Z,112.00
2019-01-30T18:41:37.450Z,101.75
2019-01-30T18:44:08.865Z,106.25
2019-01-30T18:46:41.635Z,93.25
2019-01-30T18:49:13.243Z,105.50
2019-01-30T18:51:44.965Z,105.50
2019-01-30T18:54:16.457Z,105.00
2019-01-30T18:56:48.266Z,102.75
2019-01-30T18:59:20.080Z,96.00
2019-01-30T19:01:51.476Z,111.75
2019-01-30T19:04:23.334Z,115.50
2019-01-30T19:06:54.806Z,115.25
2019-01-30T19:09:26.620Z,100.75
2019-01-30T19:11:57.928Z,114.00
2019-01-30T19:14:29.632Z,113.00
2019-01-30T19:17:01.205Z,110.50
2019-01-30T19:19:32.751Z,113.75
2019-01-30T19:22:04.526Z,116.50
2019-01-30T19:24:36.322Z,106.50
2019-01-30T19:27:07.681Z,114.75
2019-01-30T19:29:39.228Z,113.00
2019-01-30T19:32:11.124Z,121.75
2019-01-30T19:34:43.563Z,113.50
2019-01-30T19:37:14.819Z,118.25
2019-01-30T19:39:46.192Z,114.00
2019-01-30T19:42:17.783Z,108.00
2019-01-30T19:44:49.301Z,118.50
2019-01-30T19:47:20.843Z,115.75
2019-01-30T19:49:52.654Z,115.00
2019-01-30T19:52:24.454Z,111.25
2019-01-30T19:54:55.713Z,113.75
2019-01-30T19:57:26.888Z,116.00
2019-01-30T19:59:58.397Z,111.25
2019-01-30T20:02:29.952Z,112.75
2019-01-30T20:05:01.529Z,118.75
2019-01-30T20:07:33.152Z,116.50
2019-01-30T20:10:05.531Z,119.00
2019-01-30T20:12:37.133Z,127.75
2019-01-30T20:15:09.924Z,121.25
2019-01-30T20:17:41.274Z,120.00
2019-01-30T20:20:13.752Z,126.00
2019-01-30T20:22:45.425Z,131.00
2019-01-30T20:25:19.475Z,116.50
2019-01-30T20:27:51.138Z,122.50
2019-01-30T20:30:23.810Z,123.25
2019-01-30T20:32:55.711Z,120.50
2019-01-30T20:35:26.977Z,121.50
2019-01-30T20:37:58.813Z,122.50
2019-01-30T20:40:30.524Z,123.25
2019-01-30T20:43:01.954Z,117.75
2019-01-30T20:45:34.162Z,131.00
2019-01-30T20:48:06.033Z,129.75
2019-01-30T20:50:37.626Z,128.00
2019-01-30T20:53:09.587Z,131.75
2019-01-30T20:55:40.935Z,109.50
2019-01-30T20:58:12.311Z,120.75
2019-01-30T21:00:43.724Z,124.25
2019-01-30T21:03:16.273Z,122.50
2019-01-30T21:05:48.949Z,115.00
2019-01-30T21:08:20.615Z,119.75
2019-01-30T21:10:51.885Z,125.75
2019-01-30T21:13:23.249Z,121.00
2019-01-30T21:15:54.841Z,115.75
2019-01-30T21:18:26.352Z,111.50
2019-01-30T21:20:57.871Z,110.00
2019-01-30T21:23:29.190Z,115.50
2019-01-30T21:26:00.518Z,109.75
2019-01-30T21:28:31.832Z,107.50
2019-01-30T21:31:03.286Z,121.75
2019-01-30T21:33:34.647Z,107.50
2019-01-30T21:36:06.510Z,109.25
2019-01-30T21:38:38.156Z,104.00
2019-01-30T21:41:09.681Z,104.25
2019-01-30T21:43:40.933Z,105.50
2019-01-30T21:46:12.295Z,104.25
2019-01-30T21:48:43.851Z,111.50
2019-01-30T21:51:15.471Z,104.00
2019-01-30T21:53:47.096Z,98.25
2019-01-30T21:56:18.739Z,109.25
2019-01-30T21:58:50.306Z,106.50
2019-01-30T22:01:21.460Z,109.25
2019-01-30T22:03:52.694Z,105.50
2019-01-30T22:06:24.081Z,112.50
2019-01-30T22:08:55.331Z,111.50
2019-01-30T22:11:26.760Z,109.50
2019-01-30T22:13:58.030Z,104.50
2019-01-30T22:16:29.418Z,105.50
2019-01-30T22:19:00.895Z,96.00
2019-01-30T22:21:32.333Z,96.75
2019-01-30T22:24:05.527Z,87.75
2019-01-30T22:26:36.883Z,91.00
2019-01-30T22:29:08.562Z,95.60
2019-01-30T22:31:40.232Z,94.20
2019-01-30T22:34:13.380Z,92.60
2019-01-30T22:36:45.233Z,86.20
2019-01-30T22:39:16.844Z,91.20
2019-01-30T22:41:48.521Z,90.40
2019-01-30T22:44:21.000Z,87.60
2019-01-30T22:46:52.637Z,86.80
2019-01-30T22:49:24.049Z,89.60
2019-01-30T22:51:55.436Z,82.20
2019-01-30T22:54:26.990Z,88.60
2019-01-30T22:56:58.504Z,93.60
2019-01-30T22:59:30.079Z,82.80
2019-01-30T23:02:04.765Z,84.20
2019-01-30T23:05:15.514Z,85.40
2019-01-30T23:08:29.656Z,88.80
2019-01-30T23:12:01.960Z,88.80
2019-01-30T23:14:46.887Z,86.40
2019-01-30T23:18:01.837Z,84.60
2019-01-30T23:20:48.265Z,86.20
2019-01-30T23:23:51.379Z,76.80
2019-01-30T23:26:47.284Z,84.80
2019-01-30T23:30:02.203Z,89.40
2019-01-30T23:33:03.631Z,89.00
2019-01-30T23:36:08.232Z,94.80
2019-01-30T23:39:09.902Z,88.80
2019-01-30T23:42:18.370Z,86.00
2019-01-30T23:45:27.405Z,87.00
2019-01-30T23:48:34.004Z,87.00
2019-01-30T23:51:48.362Z,91.40
2019-01-30T23:54:54.914Z,87.60
2019-01-30T23:58:03.748Z,85.75
